Data for 12/26/2017

Time Sea-Level Adjusted Pressure Absolute Pressure Temperature Relative Humidity Dew Point   
(mb) (inHg) (mb) (inHg) (C) (F) (%) (C) (F)
00:05 1022 30.18 851 25.13 -16.2 2.9 79 -19 -2.2
00:10 1022 30.18 851 25.13 -16.1 3 79 -19 -2.2
00:15 1022 30.18 851 25.13 -16.2 2.9 79 -19.1 -2.3
00:20 1022 30.18 851 25.13 -16.1 2.9 78 -19.1 -2.4
00:25 1022 30.18 851 25.13 -16.2 2.9 79 -19.1 -2.3
00:30 1022 30.18 851 25.13 -16.1 3.1 78 -19 -2.2
00:35 1022 30.18 851 25.13 -16.1 3 78 -19.1 -2.3
00:40 1022 30.18 851 25.13 -16.1 3.1 78 -19.1 -2.4
00:45 1022 30.18 851 25.13 -16.1 3.1 79 -18.9 -2.1
00:50 1022 30.18 851 25.13 -16 3.1 79 -19 -2.1
00:55 1022 30.18 851 25.13 -16.1 3.1 79 -18.9 -2.1
01:00 1022 30.18 851 25.13 -16.1 3.1 78 -19 -2.3
01:05 1022 30.18 851 25.13 -16.2 2.8 79 -19.1 -2.3
01:10 1022 30.18 851 25.13 -16.2 2.8 79 -19.1 -2.3
01:15 1022 30.18 851 25.13 -16.2 2.8 78 -19.2 -2.5
01:20 1022 30.18 851 25.13 -16.2 2.9 79 -19 -2.3
01:25 1022 30.18 851 25.13 -16.1 3 78 -19.1 -2.4
01:30 1022 30.18 851 25.13 -16.2 2.9 77 -19.3 -2.7
01:35 1022 30.18 851 25.13 -16.2 2.8 78 -19.2 -2.6
01:40 1022 30.18 851 25.13 -16.2 2.8 78 -19.2 -2.6
01:45 1022 30.18 851 25.13 -16.2 2.8 78 -19.2 -2.6
01:50 1022 30.18 851 25.13 -16.2 2.8 77 -19.3 -2.8
01:55 1022 30.18 851 25.13 -16.3 2.8 77 -19.3 -2.8
02:00 1022 30.18 851 25.13 -16.3 2.7 78 -19.3 -2.7
02:05 1022 30.18 851 25.13 -16.3 2.8 78 -19.3 -2.7
02:10 1022 30.18 851 25.13 -16.2 2.8 78 -19.3 -2.7
02:15 1022 30.18 851 25.13 -16.3 2.7 78 -19.3 -2.7
02:20 1022 30.18 851 25.13 -16.2 2.8 78 -19.2 -2.6
02:25 1022 30.18 851 25.13 -16.2 2.8 78 -19.3 -2.7
02:30 1022 30.18 851 25.13 -16.3 2.7 77 -19.4 -2.9
02:35 1022 30.18 851 25.13 -16.3 2.7 78 -19.2 -2.6
02:40 1022 30.18 851 25.13 -16.2 2.8 78 -19.3 -2.7
02:45 1022 30.18 851 25.13 -16.3 2.7 78 -19.3 -2.7
02:50 1022 30.18 851 25.13 -16.2 2.8 78 -19.3 -2.7
02:55 1022 30.18 851 25.13 -16.2 2.9 78 -19.2 -2.6
03:00 1022 30.18 851 25.13 -16.2 2.9 78 -19.1 -2.5
03:05 1022 30.18 851 25.13 -16.1 3 78 -19.1 -2.3
03:10 1022 30.18 851 25.13 -16.1 3 78 -19.1 -2.4
03:15 1022 30.18 851 25.13 -16.1 3 78 -19.2 -2.5
03:20 1022 30.18 851 25.13 -16.2 2.9 77 -19.3 -2.8
03:25 1022 30.18 851 25.13 -16.2 2.8 77 -19.3 -2.8
03:30 1022 30.18 851 25.13 -16.2 2.8 78 -19.2 -2.5
03:35 1022 30.18 851 25.13 -16.2 2.8 79 -19.1 -2.3
03:40 1022 30.18 851 25.13 -16.2 2.8 79 -19 -2.2
03:45 1022 30.18 851 25.13 -16.3 2.7 81 -18.8 -1.8
03:50 1022 30.18 851 25.13 -16.3 2.6 82 -18.8 -1.8
03:55 1022 30.18 851 25.13 -16.4 2.4 83 -18.7 -1.7
04:00 1022 30.18 851 25.13 -16.5 2.3 84 -18.7 -1.6
04:05 1022 30.18 851 25.13 -16.6 2.1 85 -18.6 -1.5
04:10 1022 30.18 851 25.13 -16.7 2 85 -18.6 -1.5
04:15 1022 30.18 851 25.13 -16.7 1.9 85 -18.7 -1.6
04:20 1022 30.18 851 25.13 -16.9 1.7 86 -18.6 -1.6
04:25 1022 30.18 851 25.13 -16.9 1.5 87 -18.7 -1.6
04:30 1022 30.18 851 25.13 -16.9 1.7 86 -18.7 -1.7
04:35 1022 30.18 851 25.13 -16.9 1.6 85 -18.8 -1.9
04:40 1022 30.18 851 25.13 -16.9 1.5 85 -18.9 -2
04:45 1022 30.18 851 25.13 -16.9 1.5 85 -18.9 -2.1
04:50 1022 30.18 851 25.13 -17 1.5 85 -19 -2.1
04:55 1022 30.18 851 25.13 -17.1 1.3 85 -19.1 -2.3
05:00 1022 30.18 851 25.13 -17.1 1.3 85 -19.1 -2.4
05:05 1022 30.18 851 25.13 -17.1 1.1 85 -19.1 -2.5
05:10 1022 30.18 851 25.13 -17.2 1.1 84 -19.3 -2.7
05:15 1022 30.18 851 25.13 -17.3 1 84 -19.4 -2.9
05:20 1022 30.18 851 25.13 -17.3 0.8 83 -19.6 -3.3
05:25 1022 30.18 851 25.13 -17.5 0.5 83 -19.7 -3.5
05:30 1022 30.18 851 25.13 -17.5 0.4 83 -19.8 -3.6
05:35 1022 30.18 851 25.13 -17.5 0.5 83 -19.8 -3.6
05:40 1022 30.18 851 25.13 -17.5 0.5 83 -19.8 -3.6
05:45 1022 30.18 851 25.13 -17.6 0.4 83 -19.7 -3.5
05:50 1022 30.18 851 25.13 -17.6 0.4 83 -19.8 -3.7
05:55 1022 30.18 851 25.13 -17.6 0.3 83 -19.8 -3.6
06:00 1022 30.18 851 25.13 -17.7 0.2 83 -19.9 -3.8
06:05 1022 30.18 851 25.13 -17.8 0 84 -19.9 -3.8
06:10 1022 30.18 851 25.13 -17.9 -0.1 84 -19.9 -3.9
06:15 1022 30.18 851 25.13 -18 -0.4 83 -20.2 -4.3
06:20 1022 30.18 851 25.13 -18.2 -0.7 83 -20.4 -4.8
06:25 1022 30.18 851 25.13 -18.4 -1.1 82 -20.8 -5.4
06:30 1022 30.18 851 25.13 -18.5 -1.3 82 -20.8 -5.4
06:35 1022 30.18 851 25.13 -18.4 -1.2 83 -20.7 -5.3
06:40 1022 30.18 851 25.13 -18.5 -1.2 82 -20.8 -5.4
06:45 1022 30.18 851 25.13 -18.5 -1.3 82 -20.8 -5.5
06:50 1022 30.18 851 25.13 -18.6 -1.4 82 -20.9 -5.6
06:55 1022 30.18 851 25.13 -18.6 -1.4 81 -21.1 -5.9
07:00 1022 30.18 851 25.13 -18.9 -2 81 -21.4 -6.5
07:05 1022 30.18 851 25.13 -19 -2.3 82 -21.4 -6.6
07:10 1022 30.18 851 25.13 -18.8 -1.9 82 -21.2 -6.1
07:15 1022 30.18 851 25.13 -18.6 -1.5 82 -21 -5.7
07:20 1022 30.18 851 25.13 -18.4 -1.1 81 -20.9 -5.5
07:25 1022 30.18 851 25.13 -18.5 -1.3 80 -21.2 -6.1
07:30 1022 30.18 851 25.13 -19 -2.1 79 -21.7 -7.1
07:35 1022 30.18 851 25.13 -19.3 -2.7 81 -21.8 -7.3
07:40 1022 30.18 851 25.13 -19.1 -2.5 80 -21.7 -7.1
07:45 1022 30.18 851 25.13 -19.3 -2.7 80 -21.9 -7.5
07:50 1022 30.18 851 25.13 -19.5 -3.1 80 -22.1 -7.8
07:55 1022 30.18 851 25.13 -19.5 -3.2 81 -22 -7.6
08:00 1022 30.18 851 25.13 -19.4 -2.9 81 -21.8 -7.3
08:05 1022 30.18 851 25.13 -19.2 -2.6 82 -21.6 -7
08:10 1022 30.18 851 25.13 -19.2 -2.6 81 -21.6 -7
08:15 1022 30.18 851 25.13 -19.2 -2.5 82 -21.5 -6.7
08:20 1022 30.18 851 25.13 -19.1 -2.3 81 -21.5 -6.7
08:25 1022 30.18 851 25.13 -19.1 -2.4 81 -21.6 -6.9
08:30 1022 30.18 851 25.13 -19 -2.1 82 -21.2 -6.2
08:35 1022 30.18 851 25.13 -18.8 -1.8 81 -21.3 -6.3
08:40 1022 30.18 851 25.13 -18.8 -1.9 81 -21.3 -6.4
08:45 1022 30.18 851 25.13 -18.8 -1.9 81 -21.4 -6.5
08:50 1022 30.18 851 25.13 -18.7 -1.7 81 -21.2 -6.2
08:55 1022 30.18 851 25.13 -18.6 -1.5 80 -21.2 -6.2
09:00 1022 30.18 851 25.13 -18.7 -1.7 81 -21.3 -6.4
09:05 1022 30.18 852 25.16 -18.8 -1.8 81 -21.3 -6.3
09:10 1022 30.18 852 25.16 -18.7 -1.6 80 -21.3 -6.3
09:15 1022 30.18 852 25.16 -18.7 -1.7 80 -21.3 -6.3
09:20 1022 30.18 852 25.16 -18.7 -1.6 81 -21.3 -6.3
09:25 1023 30.21 852 25.16 -18.6 -1.5 81 -21.2 -6.1
09:30 1023 30.21 852 25.16 -18.5 -1.3 81 -21 -5.8
09:35 1023 30.21 852 25.16 -18.2 -0.8 81 -20.7 -5.2
09:40 1023 30.21 852 25.16 -17.9 -0.3 82 -20.3 -4.6
09:45 1023 30.21 852 25.16 -17.6 0.3 81 -20.1 -4.2
09:50 1023 30.21 852 25.16 -17.4 0.7 81 -19.9 -3.7
09:55 1023 30.21 852 25.16 -17 1.5 81 -19.5 -3.1
10:00 1023 30.21 852 25.16 -17 1.5 81 -19.5 -3.1
10:05 1023 30.21 852 25.16 -17 1.4 81 -19.6 -3.2
10:10 1023 30.21 852 25.16 -16.8 1.8 81 -19.3 -2.7
10:15 1023 30.21 852 25.16 -16.3 2.6 81 -18.9 -2
10:20 1023 30.21 852 25.16 -15.9 3.5 80 -18.5 -1.3
10:25 1023 30.21 852 25.16 -15.7 3.8 81 -18.2 -0.8
10:30 1023 30.21 852 25.16 -15.2 4.7 80 -17.8 -0.1
10:35 1023 30.21 852 25.16 -15 5.1 79 -17.8 -0.1
10:40 1023 30.21 852 25.16 -14.7 5.6 78 -17.7 0.2
10:45 1023 30.21 852 25.16 -14.6 5.6 77 -17.8 0
10:50 1023 30.21 852 25.16 -14.2 6.5 76 -17.6 0.3
10:55 1023 30.21 852 25.16 -14.2 6.4 74 -17.9 -0.2
11:00 1023 30.21 852 25.16 -13.8 7.2 74 -17.4 0.6
11:05 1023 30.21 852 25.16 -13.1 8.3 71 -17.4 0.6
11:10 1023 30.21 852 25.16 -12.9 8.9 68 -17.6 0.4
11:15 1023 30.21 852 25.16 -13.2 8.2 67 -18.1 -0.5
11:20 1023 30.21 852 25.16 -13.6 7.6 70 -17.9 -0.2
11:25 1023 30.21 852 25.16 -13 8.7 67 -18 -0.3
11:30 1023 30.21 852 25.16 -12.6 9.3 64 -18 -0.4
11:35 1022 30.18 852 25.16 -12.8 9 66 -17.9 -0.2
11:40 1022 30.18 852 25.16 -12.9 8.9 65 -18.2 -0.7
11:45 1022 30.18 852 25.16 -13 8.6 66 -18.1 -0.7
11:50 1022 30.18 852 25.16 -12.8 8.9 64 -18.2 -0.8
11:55 1022 30.18 852 25.16 -12.4 9.7 63 -18 -0.4
12:00 1022 30.18 851 25.13 -11.6 11.1 60 -17.8 -0.1
12:05 1022 30.18 851 25.13 -11.3 11.7 59 -17.8 0
12:10 1022 30.18 851 25.13 -11.9 10.6 61 -17.9 -0.3
12:15 1022 30.18 851 25.13 -12.3 10 63 -18 -0.4
12:20 1022 30.18 851 25.13 -12.4 9.8 63 -18.1 -0.5
12:25 1022 30.18 851 25.13 -11.8 10.7 60 -18.1 -0.6
12:30 1022 30.18 851 25.13 -12.1 10.3 61 -18.1 -0.7
12:35 1022 30.18 851 25.13 -12.3 9.9 62 -18.1 -0.5
12:40 1022 30.18 851 25.13 -11.8 10.7 60 -18.1 -0.5
12:45 1022 30.18 851 25.13 -11.3 11.7 57 -18.2 -0.8
12:50 1022 30.18 851 25.13 -11.5 11.3 58 -18.1 -0.6
12:55 1022 30.18 851 25.13 -11.2 11.9 59 -17.7 0.1
13:00 1022 30.18 851 25.13 -11 12.3 57 -18 -0.4
13:05 1022 30.18 851 25.13 -10.8 12.6 58 -17.5 0.5
13:10 1022 30.18 851 25.13 -11.1 12.1 58 -17.7 0.1
13:15 1022 30.18 851 25.13 -10.8 12.5 57 -17.8 -0
13:20 1021 30.15 851 25.13 -10.7 12.7 56 -18 -0.3
13:25 1021 30.15 851 25.13 -11 12.3 57 -18 -0.4
13:30 1021 30.15 851 25.13 -10.9 12.4 57 -17.9 -0.2
13:35 1021 30.15 851 25.13 -11.4 11.4 60 -17.8 -0.1
13:40 1021 30.15 851 25.13 -11.4 11.5 58 -18.2 -0.7
13:45 1021 30.15 851 25.13 -10.8 12.7 54 -18.2 -0.8
13:50 1021 30.15 851 25.13 -10.8 12.6 55 -18.2 -0.8
13:55 1021 30.15 851 25.13 -10.8 12.6 55 -18.1 -0.5
14:00 1021 30.15 851 25.13 -10.9 12.5 56 -18 -0.5
14:05 1021 30.15 851 25.13 -11 12.2 56 -18.1 -0.7
14:10 1021 30.15 851 25.13 -12.2 10 60 -18.6 -1.4
14:15 1021 30.15 851 25.13 -11.5 11.3 58 -18.1 -0.6
14:20 1021 30.15 851 25.13 -11 12.2 57 -18 -0.4
14:25 1021 30.15 851 25.13 -10.9 12.4 57 -17.9 -0.1
14:30 1021 30.15 851 25.13 -11.7 11 60 -18 -0.4
14:35 1021 30.15 851 25.13 -12.6 9.4 61 -18.6 -1.4
14:40 1021 30.15 851 25.13 -12.4 9.7 62 -18.2 -0.7
14:45 1021 30.15 851 25.13 -11.8 10.8 59 -18.3 -0.9
14:50 1021 30.15 851 25.13 -12 10.3 59 -18.5 -1.2
14:55 1021 30.15 851 25.13 -12 10.4 61 -18 -0.5
15:00 1021 30.15 851 25.13 -11.8 10.8 60 -18.1 -0.5
15:05 1021 30.15 851 25.13 -12 10.4 62 -17.9 -0.2
15:10 1021 30.15 851 25.13 -12.3 9.9 61 -18.3 -0.9
15:15 1021 30.15 851 25.13 -12 10.4 59 -18.4 -1.1
15:20 1021 30.15 851 25.13 -11.7 11 59 -18.1 -0.6
15:25 1021 30.15 851 25.13 -11.8 10.7 60 -18.2 -0.7
15:30 1021 30.15 851 25.13 -11.9 10.6 61 -18.1 -0.5
15:35 1021 30.15 851 25.13 -12.3 9.9 61 -18.4 -1.2
15:40 1021 30.15 850 25.1 -12.5 9.6 62 -18.4 -1
15:45 1021 30.15 850 25.1 -12.9 8.9 64 -18.4 -1.1
15:50 1021 30.15 850 25.1 -13 8.6 63 -18.7 -1.6
15:55 1021 30.15 850 25.1 -12.6 9.3 62 -18.6 -1.4
16:00 1021 30.15 850 25.1 -13 8.6 64 -18.4 -1.2
16:05 1021 30.15 850 25.1 -13.6 7.6 67 -18.5 -1.3
16:10 1021 30.15 850 25.1 -14.2 6.5 69 -18.8 -1.8
16:15 1021 30.15 850 25.1 -14.1 6.5 68 -18.8 -1.8
16:20 1021 30.15 850 25.1 -14.1 6.5 70 -18.6 -1.4
16:25 1021 30.15 850 25.1 -14.4 6.1 71 -18.6 -1.4
16:30 1021 30.15 850 25.1 -14.2 6.5 70 -18.6 -1.5
16:35 1021 30.15 850 25.1 -14.6 5.7 72 -18.6 -1.5
16:40 1021 30.15 850 25.1 -14.9 5.3 73 -18.7 -1.7
16:45 1021 30.15 850 25.1 -15.2 4.6 74 -18.8 -1.8
16:50 1021 30.15 850 25.1 -15.3 4.5 74 -18.9 -2
16:55 1021 30.15 850 25.1 -15.5 4.2 75 -18.9 -2
17:00 1021 30.15 850 25.1 -15.6 3.9 76 -18.9 -1.9
17:05 1021 30.15 850 25.1 -15.6 3.9 76 -18.9 -2
17:10 1021 30.15 850 25.1 -15.7 3.7 77 -18.8 -1.9
17:15 1021 30.15 850 25.1 -15.7 3.7 77 -18.8 -1.9
17:20 1021 30.15 850 25.1 -15.7 3.7 77 -18.9 -2
17:25 1021 30.15 850 25.1 -15.7 3.7 78 -18.7 -1.7
17:30 1021 30.15 850 25.1 -15.6 3.9 77 -18.8 -1.9
17:35 1021 30.15 850 25.1 -15.6 4 76 -18.8 -1.9
17:40 1021 30.15 850 25.1 -15.6 4 75 -19.1 -2.3
17:45 1021 30.15 850 25.1 -16 3.2 77 -19.1 -2.5
17:50 1021 30.15 850 25.1 -16 3.2 75 -19.4 -3
17:55 1021 30.15 850 25.1 -16.5 2.4 77 -19.6 -3.3
18:00 1021 30.15 850 25.1 -16.8 1.7 78 -19.8 -3.7
18:05 1021 30.15 850 25.1 -17.1 1.2 81 -19.7 -3.5
18:10 1021 30.15 850 25.1 -17.6 0.4 81 -20 -4.1
18:15 1021 30.15 850 25.1 -17.6 0.3 84 -19.7 -3.5
18:20 1021 30.15 850 25.1 -17.3 0.8 82 -19.7 -3.4
18:25 1021 30.15 850 25.1 -17.2 1.1 83 -19.4 -2.9
18:30 1021 30.15 850 25.1 -17.1 1.2 81 -19.6 -3.3
18:35 1021 30.15 850 25.1 -17.4 0.6 80 -20.1 -4.2
18:40 1021 30.15 850 25.1 -17.8 -0.1 82 -20.2 -4.4
18:45 1021 30.15 850 25.1 -17.6 0.3 82 -20 -4
18:50 1021 30.15 850 25.1 -17.6 0.3 82 -20 -3.9
18:55 1021 30.15 850 25.1 -17.6 0.4 83 -19.8 -3.6
19:00 1021 30.15 850 25.1 -17 1.4 82 -19.4 -2.9
19:05 1021 30.15 850 25.1 -16.9 1.6 80 -19.5 -3.1
19:10 1021 30.15 850 25.1 -17 1.4 81 -19.6 -3.2
19:15 1021 30.15 850 25.1 -17 1.4 82 -19.4 -3
19:20 1021 30.15 850 25.1 -16.7 1.9 80 -19.5 -3
19:25 1021 30.15 850 25.1 -16.7 1.9 80 -19.4 -2.8
19:30 1021 30.15 850 25.1 -16.5 2.2 82 -19 -2.2
19:35 1021 30.15 850 25.1 -16.1 3 79 -18.9 -2
19:40 1021 30.15 850 25.1 -16 3.2 78 -19 -2.2
19:45 1021 30.15 850 25.1 -16.2 2.9 79 -19 -2.3
19:50 1020 30.12 850 25.1 -16.1 2.9 79 -18.9 -2.1
19:55 1020 30.12 849 25.07 -15.9 3.4 77 -19 -2.2
20:00 1020 30.12 849 25.07 -15.9 3.3 78 -19 -2.2
20:05 1020 30.12 849 25.07 -16 3.3 81 -18.6 -1.4
20:10 1020 30.12 849 25.07 -15.4 4.3 79 -18.2 -0.7
20:15 1020 30.12 849 25.07 -15 5 77 -18.2 -0.7
20:20 1020 30.12 849 25.07 -15 5.1 76 -18.3 -0.9
20:25 1020 30.12 850 25.1 -15 5.1 76 -18.3 -1
20:30 1020 30.12 849 25.07 -15.1 4.9 78 -18.1 -0.5
20:35 1020 30.12 849 25.07 -15.4 4.3 79 -18.2 -0.8
20:40 1020 30.12 849 25.07 -15.5 4.2 79 -18.3 -1
20:45 1020 30.12 849 25.07 -15.4 4.2 79 -18.3 -1
20:50 1020 30.12 849 25.07 -15.3 4.4 80 -18.1 -0.6
20:55 1020 30.12 849 25.07 -15 5 80 -17.8 0
21:00 1020 30.12 849 25.07 -14.7 5.5 79 -17.6 0.4
21:05 1020 30.12 849 25.07 -14.4 6.1 79 -17.3 0.9
21:10 1020 30.12 849 25.07 -14 6.9 78 -17.1 1.3
21:15 1020 30.12 849 25.07 -14 6.9 78 -17.1 1.3
21:20 1020 30.12 849 25.07 -14.1 6.7 78 -17.1 1.2
21:25 1020 30.12 849 25.07 -14.1 6.6 79 -17 1.3
21:30 1020 30.12 849 25.07 -13.9 6.9 79 -16.8 1.7
21:35 1020 30.12 849 25.07 -13.9 6.9 79 -16.9 1.6
21:40 1020 30.12 849 25.07 -13.8 7.2 79 -16.6 2.1
21:45 1020 30.12 849 25.07 -13.4 7.8 78 -16.5 2.4
21:50 1020 30.12 849 25.07 -13.3 8.1 78 -16.3 2.6
21:55 1020 30.12 849 25.07 -13.3 8.2 78 -16.3 2.7
22:00 1020 30.12 849 25.07 -13.3 8.1 78 -16.3 2.6
22:05 1020 30.12 849 25.07 -13.3 8.2 78 -16.3 2.7
22:10 1020 30.12 849 25.07 -13.1 8.4 78 -16.2 2.8
22:15 1020 30.12 849 25.07 -13.1 8.4 77 -16.3 2.7
22:20 1020 30.12 849 25.07 -13.2 8.2 75 -16.7 1.9
22:25 1020 30.12 849 25.07 -13.7 7.4 75 -17.2 1
22:30 1020 30.12 849 25.07 -14 6.7 75 -17.6 0.4
22:35 1020 30.12 849 25.07 -14.4 6 76 -17.8 -0
22:40 1020 30.12 849 25.07 -14.6 5.6 77 -17.8 -0.1
22:45 1020 30.12 850 25.1 -14.7 5.5 77 -17.9 -0.3
22:50 1020 30.12 850 25.1 -14.9 5.3 76 -18.1 -0.7
22:55 1020 30.12 849 25.07 -15.2 4.7 78 -18.3 -0.9
23:00 1020 30.12 849 25.07 -15.4 4.2 78 -18.4 -1.1
23:05 1020 30.12 849 25.07 -15.7 3.7 80 -18.5 -1.2
23:10 1020 30.12 849 25.07 -16 3.3 81 -18.5 -1.3
23:15 1020 30.12 849 25.07 -16 3.3 81 -18.5 -1.3
23:20 1020 30.12 849 25.07 -15.9 3.3 82 -18.4 -1.1
23:25 1020 30.12 849 25.07 -15.7 3.7 84 -17.8 -0
23:30 1019 30.09 849 25.07 -15.2 4.7 82 -17.5 0.4
23:35 1019 30.09 849 25.07 -15.2 4.7 82 -17.6 0.4
23:40 1019 30.09 848 25.04 -15 5 84 -17.2 1.1
23:45 1019 30.09 848 25.04 -14.7 5.6 83 -16.9 1.6
23:50 1019 30.09 848 25.04 -14.4 6.1 85 -16.4 2.5
23:55 1019 30.09 848 25.04 -13.8 7.2 83 -16 3.2
24:00 1019 30.09 849 25.07 -13.5 7.8 81 -16 3.2